Terminal Aerodrome Forecast
Issued by NWS

Home | Current Version | Previous Version | Text Only | Print | Product List | Glossary On
Versions: 1 2 3 4 5 6 7 8 9 10 11 12 13 14 15
815
FTUS42 KTBW 231430 AAA
TAFLAL
TAF AMD
KLAL 231430Z 2314/2412 16009KT P6SM VCSH SCT020 OVC050
      TEMPO 2314/2316 BKN010
     FM231700 22010KT P6SM VCTS FEW015CB BKN040 OVC100
     FM240100 25008KT P6SM VCSH SCT030 BKN050
     FM240400 VRB06KT P6SM SCT015 BKN080
     FM241000 VRB03KT 6SM BR SCT010 BKN030=

USA.gov is the U.S. government's official web portal to all federal, state and local government web resources and services.